Time;durP1;ratioP1;P1;durP2;ratioP2;P2;SDS_P1;SDS_P2;PMS_P1;PMS_P2;Temp;Humidity;BMP_temperature;BMP_pressure;BME280_temperature;BME280_humidity;BME280_pressure;Samples;Min_cycle;Max_cycle;Signal;HPM_P1;HPM_P2
2022/09/19 00:02:05;;;;;;;14.23;1.90;;;;;;;;;;5070343;28;20490;-61
2022/09/19 00:04:32;;;;;;;20.83;2.30;;;;;;;;;;5070295;28;20442;-60
2022/09/19 00:06:59;;;;;;;16.13;2.53;;;;;;;;;;5069684;28;20736;-60
2022/09/19 00:09:27;;;;;;;6.82;1.70;;;;;;;;;;5069634;28;20152;-61
2022/09/19 00:11:53;;;;;;;10.40;1.88;;;;;;;;;;5069979;28;20570;-59
2022/09/19 00:14:21;;;;;;;12.98;1.70;;;;;;;;;;5069607;28;20445;-61
2022/09/19 00:16:47;;;;;;;12.80;1.65;;;;;;;;;;5070058;28;20040;-61
2022/09/19 00:19:15;;;;;;;11.75;1.80;;;;;;;;;;5068212;28;20036;-61
2022/09/19 00:21:42;;;;;;;12.68;2.40;;;;;;;;;;5069235;28;20486;-61
2022/09/19 00:26:58;;;;;;;9.35;2.00;;;;;;;;;;5069707;28;20040;-61
2022/09/19 00:29:24;;;;;;;9.43;1.70;;;;;;;;;;5069438;28;20393;-60
2022/09/19 00:31:51;;;;;;;11.85;1.88;;;;;;;;;;5069727;28;20052;-60
2022/09/19 00:34:17;;;;;;;13.43;1.60;;;;;;;;;;5069402;28;20041;-60
2022/09/19 00:36:44;;;;;;;12.15;1.60;;;;;;;;;;5068982;28;20086;-61
2022/09/19 00:39:10;;;;;;;11.13;1.42;;;;;;;;;;5069638;28;20050;-61
2022/09/19 00:41:37;;;;;;;14.95;1.83;;;;;;;;;;5069589;28;20036;-60
2022/09/19 00:44:04;;;;;;;10.15;1.48;;;;;;;;;;5069027;28;20041;-60
2022/09/19 00:46:32;;;;;;;15.95;1.85;;;;;;;;;;5070025;28;20616;-61
2022/09/19 00:49:08;;;;;;;13.75;1.92;;;;;;;;;;5069619;28;20075;-61
2022/09/19 00:51:45;;;;;;;12.52;1.92;;;;;;;;;;5069074;28;20036;-61
2022/09/19 00:54:13;;;;;;;14.15;2.25;;;;;;;;;;5069482;28;20076;-61
2022/09/19 00:56:45;;;;;;;16.38;1.88;;;;;;;;;;5069433;28;20087;-61
2022/09/19 00:59:11;;;;;;;;;;;;;;;;;;5069460;28;20036;-61
2022/09/19 01:01:38;;;;;;;13.07;2.15;;;;;;;;;;5069377;28;19999;-61
2022/09/19 01:04:14;;;;;;;11.27;1.67;;;;;;;;;;5069336;28;20493;-60
2022/09/19 01:06:52;;;;;;;17.58;2.30;;;;;;;;;;5068958;28;20051;-61
2022/09/19 01:09:36;;;;;;;15.80;1.80;;;;;;;;;;5069137;28;20246;-60
2022/09/19 01:12:09;;;;;;;12.60;1.70;;;;;;;;;;5069022;28;20053;-60
2022/09/19 01:14:39;;;;;;;;;;;;;;;;;;5069868;28;20057;-61
2022/09/19 01:17:19;;;;;;;15.80;2.60;;;;;;;;;;5069328;28;19916;-61
2022/09/19 01:19:54;;;;;;;11.93;1.92;;;;;;;;;;5068873;28;20048;-61
2022/09/19 01:22:27;;;;;;;14.90;2.00;;;;;;;;;;5069213;28;20037;-61
2022/09/19 01:24:58;;;;;;;10.10;1.50;;;;;;;;;;5069622;28;20119;-60
2022/09/19 01:27:27;;;;;;;13.60;2.15;;;;;;;;;;5048519;28;20128;-60
2022/09/19 01:29:53;;;;;;;17.27;2.42;;;;;;;;;;5049165;28;20128;-60
2022/09/19 01:32:22;;;;;;;17.67;1.98;;;;;;;;;;5049177;28;20163;-60
2022/09/19 01:34:51;;;;;;;11.85;1.75;;;;;;;;;;5048704;28;20080;-60
2022/09/19 01:37:19;;;;;;;17.25;2.03;;;;;;;;;;5048717;28;20083;-60
2022/09/19 01:39:50;;;;;;;14.85;2.40;;;;;;;;;;5049043;28;20037;-61
2022/09/19 01:42:18;;;;;;;13.32;1.90;;;;;;;;;;5048707;28;20076;-60
2022/09/19 01:44:44;;;;;;;13.05;2.10;;;;;;;;;;5049010;28;20048;-60
2022/09/19 01:47:11;;;;;;;16.30;2.50;;;;;;;;;;5051149;28;20426;-61
2022/09/19 01:49:55;;;;;;;9.60;1.90;;;;;;;;;;5052310;28;20049;-61
2022/09/19 01:52:37;;;;;;;17.00;2.20;;;;;;;;;;5052795;28;20346;-60
2022/09/19 01:55:03;;;;;;;12.25;1.80;;;;;;;;;;5052898;28;20045;-60
2022/09/19 01:57:31;;;;;;;16.13;2.72;;;;;;;;;;5052295;28;20443;-60
2022/09/19 02:00:05;;;;;;;19.02;2.47;;;;;;;;;;5052751;28;20044;-60
2022/09/19 02:02:38;;;;;;;19.55;2.70;;;;;;;;;;5052426;28;20029;-61
2022/09/19 02:05:07;;;;;;;19.45;2.03;;;;;;;;;;5070631;28;20083;-61
2022/09/19 02:07:48;;;;;;;17.17;2.40;;;;;;;;;;5072245;28;20075;-61
2022/09/19 02:10:17;;;;;;;15.85;2.65;;;;;;;;;;5071947;28;20150;-61
2022/09/19 02:12:43;;;;;;;20.67;2.50;;;;;;;;;;5072041;28;20044;-60
2022/09/19 02:15:12;;;;;;;15.70;2.25;;;;;;;;;;5072354;28;20055;-60
2022/09/19 02:17:44;;;;;;;20.48;2.75;;;;;;;;;;5072089;28;20032;-61
2022/09/19 02:20:15;;;;;;;16.77;2.00;;;;;;;;;;5071476;28;20083;-61
2022/09/19 02:22:46;;;;;;;24.52;2.42;;;;;;;;;;5072098;28;20044;-60
2022/09/19 02:25:15;;;;;;;17.40;1.73;;;;;;;;;;5071788;28;20051;-61
2022/09/19 02:27:50;;;;;;;18.45;2.33;;;;;;;;;;5071631;28;20467;-60
2022/09/19 02:30:19;;;;;;;19.00;3.05;;;;;;;;;;5072169;28;20102;-60
2022/09/19 02:32:48;;;;;;;18.27;2.50;;;;;;;;;;5070655;28;20055;-61
2022/09/19 02:35:38;;;;;;;18.15;2.20;;;;;;;;;;5071650;28;20048;-61
2022/09/19 02:38:16;;;;;;;16.40;2.78;;;;;;;;;;5071005;28;20048;-60
2022/09/19 02:40:50;;;;;;;16.83;2.22;;;;;;;;;;5071466;28;20085;-61
2022/09/19 02:43:22;;;;;;;17.52;2.28;;;;;;;;;;5071621;28;20124;-60
2022/09/19 02:45:51;;;;;;;16.05;2.00;;;;;;;;;;5070531;28;20484;-61
2022/09/19 02:48:43;;;;;;;15.45;2.10;;;;;;;;;;5070884;28;20033;-60
2022/09/19 02:51:25;;;;;;;12.23;1.70;;;;;;;;;;5070970;28;20056;-61
2022/09/19 02:53:56;;;;;;;16.48;2.13;;;;;;;;;;5071406;28;20041;-61
2022/09/19 02:56:28;;;;;;;12.73;2.10;;;;;;;;;;5071321;28;20040;-61
2022/09/19 02:58:54;;;;;;;;;;;;;;;;;;5071779;28;20055;-61
2022/09/19 03:01:23;;;;;;;14.90;2.00;;;;;;;;;;5071192;28;20382;-60
2022/09/19 03:06:39;;;;;;;12.77;1.98;;;;;;;;;;5071328;28;20052;-60
2022/09/19 03:09:07;;;;;;;12.15;1.95;;;;;;;;;;5071011;28;20057;-60
2022/09/19 03:11:34;;;;;;;15.98;1.95;;;;;;;;;;5070751;28;20045;-60
2022/09/19 03:14:00;;;;;;;18.10;1.77;;;;;;;;;;5071242;28;20475;-60
2022/09/19 03:16:34;;;;;;;13.25;1.90;;;;;;;;;;5071376;28;20510;-60
2022/09/19 03:19:01;;;;;;;14.57;2.22;;;;;;;;;;5070355;28;20503;-60
2022/09/19 03:21:27;;;;;;;16.48;2.30;;;;;;;;;;5071113;28;20079;-60
2022/09/19 03:24:01;;;;;;;13.73;2.15;;;;;;;;;;5071183;28;20037;-60
2022/09/19 03:26:30;;;;;;;20.83;2.25;;;;;;;;;;5070577;28;20051;-60
2022/09/19 03:28:56;;;;;;;12.20;2.08;;;;;;;;;;5070754;28;20037;-60
2022/09/19 03:31:23;;;;;;;21.70;2.42;;;;;;;;;;5070970;28;20494;-60
2022/09/19 03:33:51;;;;;;;12.00;1.95;;;;;;;;;;5070466;28;20048;-60
2022/09/19 03:36:18;;;;;;;15.40;1.90;;;;;;;;;;5070925;28;20356;-61
2022/09/19 03:38:47;;;;;;;10.38;1.48;;;;;;;;;;5070725;28;20051;-60
2022/09/19 03:41:14;;;;;;;16.73;2.53;;;;;;;;;;5070048;28;20048;-60
2022/09/19 03:43:42;;;;;;;8.85;1.88;;;;;;;;;;5070678;28;20346;-61
2022/09/19 03:46:10;;;;;;;16.38;2.05;;;;;;;;;;5070635;28;20074;-61
2022/09/19 03:48:37;;;;;;;14.18;1.65;;;;;;;;;;5070168;28;20037;-61
2022/09/19 03:51:03;;;;;;;14.05;2.42;;;;;;;;;;5070542;28;20051;-61
2022/09/19 03:53:30;;;;;;;18.27;2.20;;;;;;;;;;5069040;28;20063;-61
2022/09/19 03:55:57;;;;;;;16.50;2.75;;;;;;;;;;5070263;28;20043;-60
2022/09/19 03:58:26;;;;;;;15.35;2.10;;;;;;;;;;5070280;28;20040;-60
2022/09/19 04:00:53;;;;;;;12.07;1.60;;;;;;;;;;5070320;28;20037;-61
2022/09/19 04:03:23;;;;;;;15.82;2.58;;;;;;;;;;5069905;28;20320;-60
2022/09/19 04:05:49;;;;;;;10.20;1.40;;;;;;;;;;5069855;28;20106;-61
2022/09/19 04:08:15;;;;;;;16.80;2.08;;;;;;;;;;5069913;28;20138;-60
2022/09/19 04:10:42;;;;;;;14.95;2.42;;;;;;;;;;5069245;28;20056;-60
2022/09/19 04:13:09;;;;;;;14.32;2.15;;;;;;;;;;5070423;28;20097;-61
2022/09/19 04:15:35;;;;;;;20.85;3.22;;;;;;;;;;5070042;28;20102;-61
2022/09/19 04:18:03;;;;;;;15.00;2.30;;;;;;;;;;5069616;28;20081;-60
2022/09/19 04:20:30;;;;;;;12.02;2.85;;;;;;;;;;5069785;28;20053;-60
2022/09/19 04:23:00;;;;;;;16.77;1.80;;;;;;;;;;5069667;28;20036;-60
2022/09/19 04:25:33;;;;;;;14.10;2.72;;;;;;;;;;5069333;28;20090;-60
2022/09/19 04:28:02;;;;;;;11.55;2.05;;;;;;;;;;5069675;28;20871;-61
2022/09/19 04:30:28;;;;;;;13.98;1.35;;;;;;;;;;5070115;28;20120;-59
2022/09/19 04:32:54;;;;;;;14.82;2.65;;;;;;;;;;5069011;28;20115;-60
2022/09/19 04:35:22;;;;;;;15.98;1.70;;;;;;;;;;5069859;28;20045;-61
2022/09/19 04:37:49;;;;;;;20.02;2.10;;;;;;;;;;5070839;28;20051;-60
2022/09/19 04:40:15;;;;;;;13.48;2.22;;;;;;;;;;5070657;28;20044;-61
2022/09/19 04:42:41;;;;;;;13.75;2.03;;;;;;;;;;5070925;28;20025;-60
2022/09/19 04:45:08;;;;;;;18.55;3.38;;;;;;;;;;5070973;28;20205;-60
2022/09/19 04:47:35;;;;;;;12.23;1.88;;;;;;;;;;5070066;28;20079;-61
2022/09/19 04:50:01;;;;;;;17.30;1.83;;;;;;;;;;5070732;28;20102;-61
2022/09/19 04:52:27;;;;;;;18.55;3.17;;;;;;;;;;5070948;28;20047;-61
2022/09/19 04:54:54;;;;;;;12.85;2.13;;;;;;;;;;5070371;28;20123;-60
2022/09/19 04:57:20;;;;;;;18.13;2.83;;;;;;;;;;5070475;28;20493;-61
2022/09/19 04:59:46;;;;;;;17.33;2.55;;;;;;;;;;5070302;28;20123;-60
2022/09/19 05:02:12;;;;;;;13.85;2.05;;;;;;;;;;5070069;28;20055;-60
2022/09/19 05:04:39;;;;;;;23.38;3.08;;;;;;;;;;5070278;28;20048;-61
2022/09/19 05:07:06;;;;;;;13.60;2.13;;;;;;;;;;5067898;28;20052;-60
2022/09/19 05:09:32;;;;;;;15.35;2.58;;;;;;;;;;5067584;28;20114;-60
2022/09/19 05:11:58;;;;;;;18.23;2.67;;;;;;;;;;5069338;28;20075;-60
2022/09/19 05:14:28;;;;;;;25.15;2.42;;;;;;;;;;5068656;28;20457;-60
2022/09/19 05:16:54;;;;;;;19.23;2.42;;;;;;;;;;5067856;28;20036;-61
2022/09/19 05:19:22;;;;;;;20.35;2.42;;;;;;;;;;5068297;28;20161;-60
2022/09/19 05:21:48;;;;;;;23.85;2.30;;;;;;;;;;5068492;28;20381;-60
2022/09/19 05:24:15;;;;;;;13.48;1.92;;;;;;;;;;5072890;28;20048;-60
2022/09/19 05:26:41;;;;;;;12.68;1.73;;;;;;;;;;5074116;28;20344;-60
2022/09/19 05:29:08;;;;;;;16.88;2.17;;;;;;;;;;5074140;28;20456;-60
2022/09/19 05:31:35;;;;;;;13.88;1.90;;;;;;;;;;5073676;28;20059;-60
2022/09/19 05:34:01;;;;;;;15.80;2.22;;;;;;;;;;5073829;28;20044;-60
2022/09/19 05:36:27;;;;;;;18.65;2.03;;;;;;;;;;5073759;28;20040;-61
2022/09/19 05:38:53;;;;;;;19.45;2.47;;;;;;;;;;5072211;28;20048;-60
2022/09/19 05:41:19;;;;;;;15.00;2.17;;;;;;;;;;5072932;28;20040;-61
2022/09/19 05:43:45;;;;;;;14.15;2.15;;;;;;;;;;5072385;28;20486;-60
2022/09/19 05:46:11;;;;;;;19.35;2.15;;;;;;;;;;5072155;28;20041;-60
2022/09/19 05:48:37;;;;;;;13.52;2.03;;;;;;;;;;5072255;28;20047;-60
2022/09/19 05:51:04;;;;;;;19.42;2.20;;;;;;;;;;5072590;28;20411;-60
2022/09/19 05:56:15;;;;;;;17.67;3.65;;;;;;;;;;5072605;28;20411;-60
2022/09/19 05:58:41;;;;;;;12.50;2.28;;;;;;;;;;5071554;28;20032;-61
2022/09/19 06:01:08;;;;;;;18.48;4.00;;;;;;;;;;5071005;28;20039;-61
2022/09/19 06:03:34;;;;;;;24.98;3.63;;;;;;;;;;5073439;28;20446;-61
2022/09/19 06:06:00;;;;;;;17.52;3.17;;;;;;;;;;5073197;28;20455;-61
2022/09/19 06:08:26;;;;;;;17.98;3.28;;;;;;;;;;5072710;28;20032;-61
2022/09/19 06:10:53;;;;;;;25.08;6.25;;;;;;;;;;5073167;28;20491;-61
2022/09/19 06:13:20;;;;;;;14.88;3.40;;;;;;;;;;5071275;28;20037;-61
2022/09/19 06:15:46;;;;;;;16.80;3.50;;;;;;;;;;5071665;28;20152;-61
2022/09/19 06:18:12;;;;;;;19.45;4.57;;;;;;;;;;5071984;28;20087;-61
2022/09/19 06:20:40;;;;;;;20.67;4.55;;;;;;;;;;5071073;28;20436;-61
2022/09/19 06:23:07;;;;;;;19.55;4.38;;;;;;;;;;5072136;28;20048;-61
2022/09/19 06:25:34;;;;;;;13.82;3.90;;;;;;;;;;5071252;28;20032;-61
2022/09/19 06:28:01;;;;;;;20.17;4.45;;;;;;;;;;5071821;28;20098;-61
2022/09/19 06:30:28;;;;;;;19.88;3.78;;;;;;;;;;5071875;28;20064;-61
2022/09/19 06:32:54;;;;;;;18.77;3.10;;;;;;;;;;5071779;28;20043;-61
2022/09/19 06:35:21;;;;;;;20.42;3.60;;;;;;;;;;5072378;28;20076;-61
2022/09/19 06:37:47;;;;;;;15.90;3.60;;;;;;;;;;5071932;28;20082;-61
2022/09/19 06:40:14;;;;;;;18.38;2.78;;;;;;;;;;5068229;28;20044;-61
2022/09/19 06:42:40;;;;;;;17.73;3.03;;;;;;;;;;5066449;28;20101;-61
2022/09/19 06:45:07;;;;;;;13.57;2.67;;;;;;;;;;5071424;28;20041;-61
2022/09/19 06:47:34;;;;;;;17.73;3.17;;;;;;;;;;5071351;28;20075;-61
2022/09/19 06:50:00;;;;;;;11.13;1.80;;;;;;;;;;5071189;28;20136;-61
2022/09/19 06:52:26;;;;;;;11.52;1.52;;;;;;;;;;5070906;28;20662;-60
2022/09/19 06:54:53;;;;;;;10.02;2.33;;;;;;;;;;5069384;28;20074;-61
2022/09/19 06:57:19;;;;;;;6.40;1.48;;;;;;;;;;5069738;28;20041;-61
2022/09/19 06:59:45;;;;;;;16.20;1.88;;;;;;;;;;5058046;28;20558;-60
2022/09/19 07:02:11;;;;;;;12.43;1.58;;;;;;;;;;5069170;28;20036;-61
2022/09/19 07:04:38;;;;;;;12.95;1.60;;;;;;;;;;5070136;28;20048;-62
2022/09/19 07:07:05;;;;;;;11.05;1.63;;;;;;;;;;5070843;28;20037;-62
2022/09/19 07:09:31;;;;;;;15.02;1.33;;;;;;;;;;5069930;28;20049;-62
2022/09/19 07:11:57;;;;;;;13.60;1.83;;;;;;;;;;5064887;28;20049;-62
2022/09/19 07:14:24;;;;;;;13.73;1.77;;;;;;;;;;5067595;28;20574;-62
2022/09/19 07:16:50;;;;;;;9.20;1.40;;;;;;;;;;5069020;28;20084;-62
2022/09/19 07:19:17;;;;;;;11.05;1.40;;;;;;;;;;5069238;28;20052;-62
2022/09/19 07:21:44;;;;;;;11.85;1.52;;;;;;;;;;5067248;28;20040;-62
2022/09/19 07:24:10;;;;;;;14.65;2.00;;;;;;;;;;5070095;28;20048;-62
2022/09/19 07:26:36;;;;;;;8.73;1.38;;;;;;;;;;5063880;28;20049;-61
2022/09/19 07:29:02;;;;;;;14.70;1.80;;;;;;;;;;5065345;28;20048;-61
2022/09/19 07:31:29;;;;;;;11.82;1.73;;;;;;;;;;5065100;28;20044;-62
2022/09/19 07:33:55;;;;;;;15.50;2.00;;;;;;;;;;5065398;28;20037;-63
2022/09/19 07:36:21;;;;;;;13.82;1.88;;;;;;;;;;5063984;28;20138;-64
2022/09/19 07:38:50;;;;;;;15.73;1.80;;;;;;;;;;5069229;28;20036;-63
2022/09/19 07:41:17;;;;;;;14.13;1.80;;;;;;;;;;5063973;28;20119;-65
2022/09/19 07:43:48;;;;;;;14.20;2.05;;;;;;;;;;5064205;28;20036;-63
2022/09/19 07:46:17;;;;;;;10.27;1.75;;;;;;;;;;5064367;28;20047;-64
2022/09/19 07:48:43;;;;;;;14.95;2.08;;;;;;;;;;5066003;28;20041;-64
2022/09/19 07:51:09;;;;;;;15.05;1.98;;;;;;;;;;5064780;28;20394;-64
2022/09/19 07:53:36;;;;;;;7.90;1.52;;;;;;;;;;5068331;28;20146;-63
2022/09/19 07:56:04;;;;;;;20.88;3.30;;;;;;;;;;5065161;28;20041;-64
2022/09/19 07:58:30;;;;;;;15.73;1.90;;;;;;;;;;5069243;28;20036;-63
2022/09/19 08:00:58;;;;;;;12.25;2.13;;;;;;;;;;5068076;28;20120;-64
2022/09/19 08:03:25;;;;;;;14.93;2.10;;;;;;;;;;5063539;28;20654;-64
2022/09/19 08:05:51;;;;;;;11.65;2.05;;;;;;;;;;5060166;28;20032;-64
2022/09/19 08:08:18;;;;;;;12.10;1.65;;;;;;;;;;5066252;28;20131;-64
2022/09/19 08:10:45;;;;;;;11.35;1.88;;;;;;;;;;5061691;28;20041;-64
2022/09/19 08:13:13;;;;;;;13.82;2.53;;;;;;;;;;5068182;28;20115;-64
2022/09/19 08:15:39;;;;;;;17.13;1.70;;;;;;;;;;5062692;28;20047;-64
2022/09/19 08:18:07;;;;;;;21.05;2.85;;;;;;;;;;5066871;28;20033;-66
2022/09/19 08:20:38;;;;;;;14.65;2.10;;;;;;;;;;5063349;28;20036;-63
2022/09/19 08:23:05;;;;;;;16.75;2.13;;;;;;;;;;5065233;28;20063;-63
2022/09/19 08:25:33;;;;;;;16.42;1.90;;;;;;;;;;5067572;28;20037;-63
2022/09/19 08:27:59;;;;;;;16.02;2.53;;;;;;;;;;5066847;28;20169;-63
2022/09/19 08:30:27;;;;;;;9.57;2.00;;;;;;;;;;5059161;28;20123;-63
2022/09/19 08:32:55;;;;;;;12.38;2.28;;;;;;;;;;5062822;28;20055;-64
2022/09/19 08:35:21;;;;;;;13.77;2.15;;;;;;;;;;5065369;28;20055;-64
2022/09/19 08:37:48;;;;;;;13.70;1.95;;;;;;;;;;5064979;28;20048;-64
2022/09/19 08:40:21;;;;;;;10.23;1.95;;;;;;;;;;5064545;28;20032;-63
2022/09/19 08:43:11;;;;;;;14.30;1.92;;;;;;;;;;5063184;28;20048;-63
2022/09/19 08:45:44;;;;;;;15.48;1.70;;;;;;;;;;5062600;28;20048;-64
2022/09/19 08:48:13;;;;;;;12.07;2.10;;;;;;;;;;5064127;28;20447;-62
2022/09/19 08:50:40;;;;;;;16.23;2.05;;;;;;;;;;5064770;28;20486;-62
2022/09/19 08:53:10;;;;;;;12.88;1.95;;;;;;;;;;5060634;28;20696;-62
2022/09/19 08:55:37;;;;;;;12.75;1.90;;;;;;;;;;5064057;28;20036;-61
2022/09/19 08:58:08;;;;;;;12.55;2.08;;;;;;;;;;5065133;28;20666;-64
2022/09/19 09:00:37;;;;;;;15.95;2.20;;;;;;;;;;5061826;28;20479;-62
2022/09/19 09:03:03;;;;;;;13.50;1.90;;;;;;;;;;5064093;28;20794;-62
2022/09/19 09:05:29;;;;;;;14.23;2.03;;;;;;;;;;5064395;28;20032;-62
2022/09/19 09:08:00;;;;;;;17.60;2.00;;;;;;;;;;5062795;28;20098;-62
2022/09/19 09:10:45;;;;;;;12.43;1.50;;;;;;;;;;5065591;28;20055;-61
2022/09/19 09:13:24;;;;;;;12.73;1.52;;;;;;;;;;5060802;28;20044;-62
2022/09/19 09:15:57;;;;;;;6.32;1.20;;;;;;;;;;5062778;28;20040;-62
2022/09/19 09:18:29;;;;;;;9.35;1.35;;;;;;;;;;5063701;28;20073;-61
2022/09/19 09:21:06;;;;;;;8.95;1.50;;;;;;;;;;5063940;28;20124;-62
2022/09/19 09:23:36;;;;;;;10.23;1.20;;;;;;;;;;5065966;28;20068;-61
2022/09/19 09:26:08;;;;;;;10.40;1.45;;;;;;;;;;5066274;28;20052;-62
2022/09/19 09:28:37;;;;;;;12.10;1.70;;;;;;;;;;5061363;28;20033;-63
2022/09/19 09:31:26;;;;;;;10.43;2.00;;;;;;;;;;5062419;28;20059;-64
2022/09/19 09:33:56;;;;;;;8.88;1.35;;;;;;;;;;5065581;28;20048;-65
2022/09/19 09:36:26;;;;;;;8.27;1.20;;;;;;;;;;5063980;28;20064;-62
2022/09/19 09:38:54;;;;;;;6.82;0.90;;;;;;;;;;5067779;28;20060;-63
2022/09/19 09:41:45;;;;;;;10.07;1.27;;;;;;;;;;5065673;28;20375;-64
2022/09/19 09:44:15;;;;;;;8.52;2.17;;;;;;;;;;5061011;28;20138;-62
2022/09/19 09:46:44;;;;;;;7.03;1.45;;;;;;;;;;5063938;28;20045;-63
2022/09/19 09:49:14;;;;;;;16.92;2.40;;;;;;;;;;5065878;28;20040;-64
2022/09/19 09:51:59;;;;;;;10.23;1.40;;;;;;;;;;5060488;28;20422;-63
2022/09/19 09:57:47;;;;;;;14.93;1.98;;;;;;;;;;5059802;28;20044;-62
2022/09/19 10:05:47;;;;;;;10.40;1.52;;;;;;;;;;5066509;28;20048;-63
2022/09/19 10:08:18;;;;;;;12.10;1.67;;;;;;;;;;5064636;28;20443;-64
2022/09/19 10:10:46;;;;;;;9.13;1.85;;;;;;;;;;5068705;28;20048;-64
2022/09/19 10:13:16;;;;;;;13.55;1.85;;;;;;;;;;5067727;28;20041;-64
2022/09/19 10:15:42;;;;;;;7.75;1.42;;;;;;;;;;5072420;28;20090;-63
2022/09/19 10:18:10;;;;;;;8.55;1.30;;;;;;;;;;5065519;28;20044;-64
2022/09/19 10:20:38;;;;;;;10.18;1.60;;;;;;;;;;5069236;28;20317;-64
2022/09/19 10:23:11;;;;;;;7.25;1.10;;;;;;;;;;5070772;28;20029;-64
2022/09/19 10:25:37;;;;;;;;;;;;;;;;;;5069369;28;20049;-64
2022/09/19 10:28:16;;;;;;;7.63;1.48;;;;;;;;;;5069508;28;20011;-64
2022/09/19 10:30:50;;;;;;;7.50;1.10;;;;;;;;;;5071166;28;20085;-64
2022/09/19 10:33:28;;;;;;;5.40;1.00;;;;;;;;;;5069736;28;20058;-64
2022/09/19 10:35:58;;;;;;;13.68;1.40;;;;;;;;;;5055901;28;20040;-64
2022/09/19 10:38:26;;;;;;;8.18;1.30;;;;;;;;;;5065582;28;20052;-65
2022/09/19 10:40:59;;;;;;;13.70;2.20;;;;;;;;;;5066922;28;20453;-64
2022/09/19 10:43:32;;;;;;;13.00;1.95;;;;;;;;;;5069060;28;20040;-63
2022/09/19 10:46:05;;;;;;;10.45;2.40;;;;;;;;;;5071205;28;20095;-62
2022/09/19 10:48:33;;;;;;;16.85;2.30;;;;;;;;;;5071282;28;20141;-62
2022/09/19 10:50:59;;;;;;;15.40;2.28;;;;;;;;;;5071964;28;20566;-62
2022/09/19 10:53:30;;;;;;;10.90;2.03;;;;;;;;;;5072384;28;20040;-63
2022/09/19 10:55:58;;;;;;;11.85;1.33;;;;;;;;;;5072195;28;20076;-63
2022/09/19 10:58:28;;;;;;;19.83;2.45;;;;;;;;;;5073090;28;20036;-63
2022/09/19 11:00:57;;;;;;;13.45;1.73;;;;;;;;;;5071954;28;20040;-63
2022/09/19 11:03:31;;;;;;;9.70;1.80;;;;;;;;;;5073848;28;20036;-63
2022/09/19 11:06:14;;;;;;;16.25;2.17;;;;;;;;;;5070394;28;20059;-63
2022/09/19 11:08:44;;;;;;;18.35;2.40;;;;;;;;;;5070126;28;20579;-63
2022/09/19 11:11:45;;;;;;;13.50;2.45;;;;;;;;;;5072487;28;20052;-62
2022/09/19 11:14:22;;;;;;;10.95;2.05;;;;;;;;;;5070210;28;20090;-62
2022/09/19 11:16:57;;;;;;;14.25;2.40;;;;;;;;;;5071307;28;20099;-62
2022/09/19 11:19:26;;;;;;;11.57;1.92;;;;;;;;;;5071918;28;20078;-63
2022/09/19 11:22:07;;;;;;;16.02;2.75;;;;;;;;;;5071758;28;20668;-62
2022/09/19 11:24:46;;;;;;;14.93;2.95;;;;;;;;;;5056379;28;20040;-63
2022/09/19 11:27:21;;;;;;;9.82;1.95;;;;;;;;;;5070213;28;20050;-62
2022/09/19 11:29:54;;;;;;;11.65;2.00;;;;;;;;;;5071256;28;20032;-62
2022/09/19 11:32:44;;;;;;;12.35;1.80;;;;;;;;;;5070918;28;20109;-62
2022/09/19 11:35:25;;;;;;;14.40;1.90;;;;;;;;;;5063427;28;20430;-63
2022/09/19 11:38:03;;;;;;;13.20;2.33;;;;;;;;;;5067416;28;20043;-63
2022/09/19 11:40:52;;;;;;;6.60;1.85;;;;;;;;;;5064648;28;20044;-65
2022/09/19 11:43:39;;;;;;;15.75;2.50;;;;;;;;;;5057960;28;20048;-64
2022/09/19 11:46:25;;;;;;;14.95;2.67;;;;;;;;;;5069482;28;20055;-63
2022/09/19 11:49:01;;;;;;;11.95;2.08;;;;;;;;;;5065109;28;20072;-66
2022/09/19 11:51:36;;;;;;;13.52;1.92;;;;;;;;;;5067702;28;20124;-66
2022/09/19 11:54:08;;;;;;;9.35;1.50;;;;;;;;;;5063002;28;20044;-63
2022/09/19 11:56:40;;;;;;;9.40;1.52;;;;;;;;;;5066688;28;20032;-63
2022/09/19 11:59:06;;;;;;;17.13;2.83;;;;;;;;;;5065624;28;20043;-64
2022/09/19 12:01:41;;;;;;;12.20;2.00;;;;;;;;;;5066270;28;21292;-64
2022/09/19 12:04:13;;;;;;;9.18;2.33;;;;;;;;;;5069278;28;20044;-64
2022/09/19 12:06:47;;;;;;;12.45;1.67;;;;;;;;;;5066235;28;20036;-64
2022/09/19 12:09:18;;;;;;;7.05;1.67;;;;;;;;;;5067100;28;20425;-65
2022/09/19 12:11:50;;;;;;;8.98;1.98;;;;;;;;;;5066142;28;20040;-64
2022/09/19 12:14:31;;;;;;;10.98;2.30;;;;;;;;;;5067107;28;20519;-65
2022/09/19 12:17:01;;;;;;;12.25;2.10;;;;;;;;;;5063897;28;20175;-63
2022/09/19 12:19:35;;;;;;;9.80;2.00;;;;;;;;;;5068196;28;20044;-63
2022/09/19 12:22:06;;;;;;;6.45;1.40;;;;;;;;;;5063492;28;20044;-63
2022/09/19 12:25:11;;;;;;;11.00;1.50;;;;;;;;;;5068221;28;20388;-64
2022/09/19 12:27:32;;;;;;;11.82;1.40;;;;;;;;;;5060641;28;20871;-64
2022/09/19 12:30:11;;;;;;;9.90;1.65;;;;;;;;;;5067434;28;20054;-63
2022/09/19 12:32:49;;;;;;;11.93;1.73;;;;;;;;;;5068305;28;20063;-64
2022/09/19 12:35:21;;;;;;;12.18;1.77;;;;;;;;;;5064694;28;20045;-65
2022/09/19 12:37:47;;;;;;;;;;;;;;;;;;5066072;28;20025;-63
2022/09/19 12:40:28;;;;;;;11.23;2.45;;;;;;;;;;5066791;28;19923;-64
2022/09/19 12:43:12;;;;;;;14.20;2.05;;;;;;;;;;5068154;28;20040;-63
2022/09/19 12:45:57;;;;;;;12.23;2.08;;;;;;;;;;5067748;28;20036;-63
2022/09/19 12:48:36;;;;;;;13.95;2.15;;;;;;;;;;5067770;28;20037;-64
2022/09/19 12:51:06;;;;;;;12.07;1.77;;;;;;;;;;5064294;28;20040;-64
2022/09/19 12:53:35;;;;;;;11.23;1.90;;;;;;;;;;5068408;28;20112;-64
2022/09/19 12:56:06;;;;;;;14.82;2.00;;;;;;;;;;5066755;28;20032;-64
2022/09/19 12:58:40;;;;;;;10.70;2.03;;;;;;;;;;5067171;28;20044;-64
2022/09/19 13:01:18;;;;;;;10.45;1.80;;;;;;;;;;5067722;28;20115;-64
2022/09/19 13:03:53;;;;;;;14.82;1.88;;;;;;;;;;5067418;28;20045;-65
2022/09/19 13:06:24;;;;;;;9.35;1.40;;;;;;;;;;5066904;28;20043;-64
2022/09/19 13:08:53;;;;;;;13.70;1.55;;;;;;;;;;5067123;28;20057;-63
2022/09/19 13:11:28;;;;;;;14.85;1.80;;;;;;;;;;5063706;28;20032;-64
2022/09/19 13:14:10;;;;;;;7.63;1.85;;;;;;;;;;5067830;28;20650;-64
2022/09/19 13:23:30;;;;;;;11.50;1.63;;;;;;;;;;5067743;28;20068;-65
2022/09/19 13:24:47;;;;;;;10.18;1.45;;;;;;;;;;5064432;28;20049;-63
2022/09/19 13:27:14;;;;;;;6.68;1.30;;;;;;;;;;5073198;28;20540;-63
2022/09/19 13:29:43;;;;;;;12.40;1.80;;;;;;;;;;5075517;28;20064;-64
2022/09/19 13:32:27;;;;;;;14.07;1.70;;;;;;;;;;5063490;28;20056;-63
2022/09/19 13:35:03;;;;;;;7.53;1.38;;;;;;;;;;5064963;28;20538;-63
2022/09/19 13:37:29;;;;;;;12.13;1.80;;;;;;;;;;5064568;28;20037;-64
2022/09/19 13:40:05;;;;;;;12.05;1.63;;;;;;;;;;5065422;28;20029;-63
2022/09/19 13:42:40;;;;;;;9.73;1.65;;;;;;;;;;5061497;28;20055;-63
2022/09/19 13:45:17;;;;;;;9.05;1.30;;;;;;;;;;5071940;28;20045;-63
2022/09/19 13:47:44;;;;;;;9.07;1.50;;;;;;;;;;5068422;28;20041;-62
2022/09/19 13:50:13;;;;;;;14.98;2.00;;;;;;;;;;5069118;28;20044;-64
2022/09/19 13:52:45;;;;;;;8.13;1.38;;;;;;;;;;5069410;28;20303;-64
2022/09/19 13:55:17;;;;;;;16.13;1.88;;;;;;;;;;5069125;28;20159;-64
2022/09/19 13:57:43;;;;;;;12.40;1.73;;;;;;;;;;5068361;28;20205;-64
2022/09/19 14:00:23;;;;;;;10.95;1.92;;;;;;;;;;5060148;28;20064;-63
2022/09/19 14:03:06;;;;;;;10.68;1.95;;;;;;;;;;5065968;28;20032;-63
2022/09/19 14:05:34;;;;;;;14.68;1.98;;;;;;;;;;5065524;28;20029;-64
2022/09/19 14:08:00;;;;;;;12.82;2.30;;;;;;;;;;5065329;28;20123;-61
2022/09/19 14:10:29;;;;;;;10.77;1.63;;;;;;;;;;5071429;28;20110;-61
2022/09/19 14:12:57;;;;;;;13.27;2.05;;;;;;;;;;5072891;28;20045;-61
2022/09/19 14:15:28;;;;;;;10.30;1.70;;;;;;;;;;5072872;28;20093;-61
2022/09/19 14:18:13;;;;;;;14.60;1.87;;;;;;;;;;5070210;28;20043;-61
2022/09/19 14:20:48;;;;;;;16.42;2.47;;;;;;;;;;5071425;28;20032;-61
2022/09/19 14:23:15;;;;;;;17.02;2.30;;;;;;;;;;5070325;28;20115;-61
2022/09/19 14:25:46;;;;;;;15.82;1.98;;;;;;;;;;5071967;28;20037;-61
2022/09/19 14:28:32;;;;;;;9.00;1.50;;;;;;;;;;5069990;28;20072;-61
2022/09/19 14:31:05;;;;;;;12.63;1.90;;;;;;;;;;5070924;28;20093;-61
2022/09/19 14:33:53;;;;;;;14.02;1.85;;;;;;;;;;5050969;28;20044;-62
2022/09/19 14:36:19;;;;;;;9.27;1.73;;;;;;;;;;5070926;28;20056;-62
2022/09/19 14:39:13;;;;;;;14.20;2.42;;;;;;;;;;5072020;28;20047;-61
2022/09/19 14:41:41;;;;;;;13.15;1.65;;;;;;;;;;5072800;28;20051;-61
2022/09/19 14:44:23;;;;;;;16.27;2.00;;;;;;;;;;5073073;28;20075;-62
2022/09/19 14:46:58;;;;;;;15.07;3.20;;;;;;;;;;5072206;28;20045;-62
2022/09/19 14:49:27;;;;;;;11.73;1.60;;;;;;;;;;5072852;28;20135;-61
2022/09/19 14:52:01;;;;;;;13.95;1.75;;;;;;;;;;5072822;28;20043;-61
2022/09/19 14:54:40;;;;;;;15.50;2.08;;;;;;;;;;5071880;28;20459;-60
2022/09/19 14:57:13;;;;;;;17.13;1.90;;;;;;;;;;5072831;28;20083;-60
2022/09/19 14:59:40;;;;;;;7.90;1.42;;;;;;;;;;5072868;28;20445;-60
2022/09/19 15:02:15;;;;;;;11.80;1.90;;;;;;;;;;5072456;28;20043;-61
2022/09/19 15:04:41;;;;;;;13.90;1.80;;;;;;;;;;5072394;28;20079;-60
2022/09/19 15:07:10;;;;;;;14.45;1.80;;;;;;;;;;5072074;28;20040;-61
2022/09/19 15:09:37;;;;;;;9.15;1.50;;;;;;;;;;5072089;28;20060;-61
2022/09/19 15:12:14;;;;;;;10.95;1.50;;;;;;;;;;5072818;28;20384;-60
2022/09/19 15:14:45;;;;;;;4.88;1.23;;;;;;;;;;5072294;28;20573;-61
2022/09/19 15:17:11;;;;;;;10.43;1.30;;;;;;;;;;5072134;28;20044;-61